Beach Hampton, New York
Current Conditions -  °F | °C
As of 8:18 PM on Tuesday 27 Jan 2015 (Local Time) from KGON Reporting Station
Light Snow Light Snow  
Wind Chill:   Ceiling: 2700
Heat Index: 17°   Visibility: 3mi
Dew Point: 11°   Wind: 18mph
Humidity: 77%   Direction: 330°NNW
Pressure: 29.66"   Gusts: 28mph
Location:  40.9764°N, 72.1316°W
Report Text: KGON 280118Z 33016G24KT 3SM -SN FEW022 OVC027 M08/M12 A2966 RMK AO2 P0000 T10831117 $
Loading
Personal Weather Stations






























Interactive Weather Map New forecast layout! Learn more

10-Day Weather Forecast

Advertisements
Track Severe Weather on mobile